sensor_id;sensor_type;location;lat;lon;timestamp;P1;durP1;ratioP1;P2;durP2;ratioP2
34481;SDS011;20720;48.886;9.388;2023-05-16T00:01:34;8.77;;;4.78;;
34481;SDS011;20720;48.886;9.388;2023-05-16T00:04:00;8.10;;;5.30;;
34481;SDS011;20720;48.886;9.388;2023-05-16T00:06:27;7.60;;;4.60;;
34481;SDS011;20720;48.886;9.388;2023-05-16T00:08:52;7.43;;;5.28;;
34481;SDS011;20720;48.886;9.388;2023-05-16T00:11:17;7.15;;;5.05;;
34481;SDS011;20720;48.886;9.388;2023-05-16T00:13:43;7.05;;;5.38;;
34481;SDS011;20720;48.886;9.388;2023-05-16T00:16:10;8.02;;;5.10;;
34481;SDS011;20720;48.886;9.388;2023-05-16T00:18:38;7.15;;;5.03;;
34481;SDS011;20720;48.886;9.388;2023-05-16T00:21:03;6.03;;;4.57;;
34481;SDS011;20720;48.886;9.388;2023-05-16T00:23:29;11.48;;;4.97;;
34481;SDS011;20720;48.886;9.388;2023-05-16T00:25:55;7.00;;;4.57;;
34481;SDS011;20720;48.886;9.388;2023-05-16T00:28:20;6.03;;;4.30;;
34481;SDS011;20720;48.886;9.388;2023-05-16T00:30:45;6.30;;;4.82;;
34481;SDS011;20720;48.886;9.388;2023-05-16T00:33:11;6.15;;;4.72;;
34481;SDS011;20720;48.886;9.388;2023-05-16T00:35:36;4.90;;;4.15;;
34481;SDS011;20720;48.886;9.388;2023-05-16T00:38:02;7.00;;;5.45;;
34481;SDS011;20720;48.886;9.388;2023-05-16T00:40:27;5.32;;;4.00;;
34481;SDS011;20720;48.886;9.388;2023-05-16T00:42:52;6.65;;;4.75;;
34481;SDS011;20720;48.886;9.388;2023-05-16T00:45:17;6.72;;;5.05;;
34481;SDS011;20720;48.886;9.388;2023-05-16T00:47:43;8.43;;;4.75;;
34481;SDS011;20720;48.886;9.388;2023-05-16T00:50:08;6.15;;;4.50;;
34481;SDS011;20720;48.886;9.388;2023-05-16T00:52:34;6.75;;;5.07;;
34481;SDS011;20720;48.886;9.388;2023-05-16T00:55:00;6.32;;;4.40;;
34481;SDS011;20720;48.886;9.388;2023-05-16T00:57:26;6.30;;;4.55;;
34481;SDS011;20720;48.886;9.388;2023-05-16T00:59:51;10.68;;;4.85;;
34481;SDS011;20720;48.886;9.388;2023-05-16T01:02:16;7.07;;;5.40;;
34481;SDS011;20720;48.886;9.388;2023-05-16T01:04:42;7.03;;;4.95;;
34481;SDS011;20720;48.886;9.388;2023-05-16T01:07:08;7.30;;;4.60;;
34481;SDS011;20720;48.886;9.388;2023-05-16T01:09:33;5.30;;;4.35;;
34481;SDS011;20720;48.886;9.388;2023-05-16T01:12:19;5.90;;;4.50;;
34481;SDS011;20720;48.886;9.388;2023-05-16T01:15:01;6.68;;;4.30;;
34481;SDS011;20720;48.886;9.388;2023-05-16T01:23:05;6.53;;;4.93;;
34481;SDS011;20720;48.886;9.388;2023-05-16T01:28:09;7.38;;;4.97;;
34481;SDS011;20720;48.886;9.388;2023-05-16T01:30:38;7.85;;;4.93;;
34481;SDS011;20720;48.886;9.388;2023-05-16T01:33:05;6.50;;;4.25;;
34481;SDS011;20720;48.886;9.388;2023-05-16T01:35:31;5.13;;;4.15;;
34481;SDS011;20720;48.886;9.388;2023-05-16T01:38:05;6.40;;;4.43;;
34481;SDS011;20720;48.886;9.388;2023-05-16T01:40:47;7.35;;;4.75;;
34481;SDS011;20720;48.886;9.388;2023-05-16T01:43:24;7.18;;;4.65;;
34481;SDS011;20720;48.886;9.388;2023-05-16T01:45:59;6.25;;;4.40;;
34481;SDS011;20720;48.886;9.388;2023-05-16T01:49:26;6.65;;;5.15;;
34481;SDS011;20720;48.886;9.388;2023-05-16T01:51:32;7.35;;;4.57;;
34481;SDS011;20720;48.886;9.388;2023-05-16T01:54:04;6.82;;;5.05;;
34481;SDS011;20720;48.886;9.388;2023-05-16T01:56:34;9.02;;;5.50;;
34481;SDS011;20720;48.886;9.388;2023-05-16T01:59:01;6.30;;;4.95;;
34481;SDS011;20720;48.886;9.388;2023-05-16T02:01:28;7.18;;;5.07;;
34481;SDS011;20720;48.886;9.388;2023-05-16T02:03:55;7.63;;;5.68;;
34481;SDS011;20720;48.886;9.388;2023-05-16T02:06:21;7.32;;;5.63;;
34481;SDS011;20720;48.886;9.388;2023-05-16T02:08:47;6.28;;;5.10;;
34481;SDS011;20720;48.886;9.388;2023-05-16T02:11:13;7.28;;;4.97;;
34481;SDS011;20720;48.886;9.388;2023-05-16T02:13:38;6.88;;;4.88;;
34481;SDS011;20720;48.886;9.388;2023-05-16T02:16:03;7.88;;;5.00;;
34481;SDS011;20720;48.886;9.388;2023-05-16T02:18:29;7.25;;;5.05;;
34481;SDS011;20720;48.886;9.388;2023-05-16T02:20:54;7.72;;;5.88;;
34481;SDS011;20720;48.886;9.388;2023-05-16T02:23:20;7.63;;;5.38;;
34481;SDS011;20720;48.886;9.388;2023-05-16T02:25:45;7.97;;;4.95;;
34481;SDS011;20720;48.886;9.388;2023-05-16T02:28:10;7.07;;;5.55;;
34481;SDS011;20720;48.886;9.388;2023-05-16T02:30:35;8.52;;;5.35;;
34481;SDS011;20720;48.886;9.388;2023-05-16T02:33:01;8.88;;;5.88;;
34481;SDS011;20720;48.886;9.388;2023-05-16T02:35:26;7.40;;;5.47;;
34481;SDS011;20720;48.886;9.388;2023-05-16T02:37:51;11.95;;;6.25;;
34481;SDS011;20720;48.886;9.388;2023-05-16T02:40:16;7.43;;;5.47;;
34481;SDS011;20720;48.886;9.388;2023-05-16T02:42:42;7.03;;;5.53;;
34481;SDS011;20720;48.886;9.388;2023-05-16T02:45:07;8.00;;;6.07;;
34481;SDS011;20720;48.886;9.388;2023-05-16T02:47:33;6.70;;;4.97;;
34481;SDS011;20720;48.886;9.388;2023-05-16T02:49:58;7.88;;;5.80;;
34481;SDS011;20720;48.886;9.388;2023-05-16T02:52:23;6.95;;;5.55;;
34481;SDS011;20720;48.886;9.388;2023-05-16T02:54:48;7.93;;;5.32;;
34481;SDS011;20720;48.886;9.388;2023-05-16T02:57:14;7.05;;;4.93;;
34481;SDS011;20720;48.886;9.388;2023-05-16T02:59:39;7.25;;;5.10;;
34481;SDS011;20720;48.886;9.388;2023-05-16T03:02:04;7.55;;;5.78;;
34481;SDS011;20720;48.886;9.388;2023-05-16T03:04:30;7.25;;;5.45;;
34481;SDS011;20720;48.886;9.388;2023-05-16T03:06:55;6.88;;;5.65;;
34481;SDS011;20720;48.886;9.388;2023-05-16T03:09:20;10.35;;;5.32;;
34481;SDS011;20720;48.886;9.388;2023-05-16T03:11:45;7.55;;;5.60;;
34481;SDS011;20720;48.886;9.388;2023-05-16T03:14:11;7.22;;;4.90;;
34481;SDS011;20720;48.886;9.388;2023-05-16T03:16:36;7.07;;;5.50;;
34481;SDS011;20720;48.886;9.388;2023-05-16T03:19:02;8.07;;;5.55;;
34481;SDS011;20720;48.886;9.388;2023-05-16T03:21:31;7.65;;;5.60;;
34481;SDS011;20720;48.886;9.388;2023-05-16T03:23:56;10.43;;;6.28;;
34481;SDS011;20720;48.886;9.388;2023-05-16T03:26:22;10.20;;;8.75;;
34481;SDS011;20720;48.886;9.388;2023-05-16T03:28:48;12.05;;;9.48;;
34481;SDS011;20720;48.886;9.388;2023-05-16T03:31:15;12.48;;;9.30;;
34481;SDS011;20720;48.886;9.388;2023-05-16T03:33:40;12.57;;;9.30;;
34481;SDS011;20720;48.886;9.388;2023-05-16T03:36:05;10.90;;;8.65;;
34481;SDS011;20720;48.886;9.388;2023-05-16T03:38:31;10.05;;;7.93;;
34481;SDS011;20720;48.886;9.388;2023-05-16T03:40:56;9.18;;;7.68;;
34481;SDS011;20720;48.886;9.388;2023-05-16T03:43:22;9.07;;;7.10;;
34481;SDS011;20720;48.886;9.388;2023-05-16T03:45:47;9.73;;;7.78;;
34481;SDS011;20720;48.886;9.388;2023-05-16T03:48:12;9.15;;;7.05;;
34481;SDS011;20720;48.886;9.388;2023-05-16T03:50:37;9.88;;;7.50;;
34481;SDS011;20720;48.886;9.388;2023-05-16T03:53:03;9.15;;;6.60;;
34481;SDS011;20720;48.886;9.388;2023-05-16T03:55:29;10.02;;;6.70;;
34481;SDS011;20720;48.886;9.388;2023-05-16T03:57:55;8.13;;;6.35;;
34481;SDS011;20720;48.886;9.388;2023-05-16T04:00:20;7.85;;;6.20;;
34481;SDS011;20720;48.886;9.388;2023-05-16T04:02:46;8.68;;;6.47;;
34481;SDS011;20720;48.886;9.388;2023-05-16T04:05:11;8.07;;;6.07;;
34481;SDS011;20720;48.886;9.388;2023-05-16T04:07:37;8.68;;;6.72;;
34481;SDS011;20720;48.886;9.388;2023-05-16T04:10:03;8.85;;;6.32;;
34481;SDS011;20720;48.886;9.388;2023-05-16T04:12:29;8.13;;;6.10;;
34481;SDS011;20720;48.886;9.388;2023-05-16T04:14:54;7.60;;;5.93;;
34481;SDS011;20720;48.886;9.388;2023-05-16T04:17:20;8.80;;;6.45;;
34481;SDS011;20720;48.886;9.388;2023-05-16T04:19:45;8.75;;;6.25;;
34481;SDS011;20720;48.886;9.388;2023-05-16T04:22:10;8.18;;;6.28;;
34481;SDS011;20720;48.886;9.388;2023-05-16T04:24:35;8.60;;;5.88;;
34481;SDS011;20720;48.886;9.388;2023-05-16T04:27:01;8.65;;;6.22;;
34481;SDS011;20720;48.886;9.388;2023-05-16T04:29:26;8.35;;;6.32;;
34481;SDS011;20720;48.886;9.388;2023-05-16T04:31:52;8.95;;;6.60;;
34481;SDS011;20720;48.886;9.388;2023-05-16T04:34:17;6.97;;;5.95;;
34481;SDS011;20720;48.886;9.388;2023-05-16T04:36:43;9.55;;;6.88;;
34481;SDS011;20720;48.886;9.388;2023-05-16T04:39:08;9.23;;;6.90;;
34481;SDS011;20720;48.886;9.388;2023-05-16T04:41:33;8.30;;;6.70;;
34481;SDS011;20720;48.886;9.388;2023-05-16T04:44:00;9.35;;;7.07;;
34481;SDS011;20720;48.886;9.388;2023-05-16T04:46:28;9.40;;;7.20;;
34481;SDS011;20720;48.886;9.388;2023-05-16T04:48:54;17.35;;;7.05;;
34481;SDS011;20720;48.886;9.388;2023-05-16T04:51:19;9.90;;;7.28;;
34481;SDS011;20720;48.886;9.388;2023-05-16T04:53:45;13.27;;;8.45;;
34481;SDS011;20720;48.886;9.388;2023-05-16T04:56:11;10.80;;;8.25;;
34481;SDS011;20720;48.886;9.388;2023-05-16T04:58:36;15.57;;;9.73;;
34481;SDS011;20720;48.886;9.388;2023-05-16T05:01:01;11.90;;;8.93;;
34481;SDS011;20720;48.886;9.388;2023-05-16T05:03:27;11.82;;;9.20;;
34481;SDS011;20720;48.886;9.388;2023-05-16T05:05:52;11.85;;;7.85;;
34481;SDS011;20720;48.886;9.388;2023-05-16T05:08:18;16.60;;;9.30;;
34481;SDS011;20720;48.886;9.388;2023-05-16T05:10:43;13.02;;;9.25;;
34481;SDS011;20720;48.886;9.388;2023-05-16T05:13:09;13.02;;;9.18;;
34481;SDS011;20720;48.886;9.388;2023-05-16T05:15:35;11.00;;;8.13;;
34481;SDS011;20720;48.886;9.388;2023-05-16T05:18:00;12.15;;;8.65;;
34481;SDS011;20720;48.886;9.388;2023-05-16T05:20:26;11.38;;;8.60;;
34481;SDS011;20720;48.886;9.388;2023-05-16T05:22:51;12.45;;;9.77;;
34481;SDS011;20720;48.886;9.388;2023-05-16T05:25:16;18.70;;;10.18;;
34481;SDS011;20720;48.886;9.388;2023-05-16T05:27:42;17.65;;;11.65;;
34481;SDS011;20720;48.886;9.388;2023-05-16T05:30:07;15.43;;;10.48;;
34481;SDS011;20720;48.886;9.388;2023-05-16T05:32:33;16.45;;;11.40;;
34481;SDS011;20720;48.886;9.388;2023-05-16T05:34:58;19.95;;;12.32;;
34481;SDS011;20720;48.886;9.388;2023-05-16T05:37:23;19.75;;;12.15;;
34481;SDS011;20720;48.886;9.388;2023-05-16T05:39:50;17.52;;;12.07;;
34481;SDS011;20720;48.886;9.388;2023-05-16T05:42:15;17.25;;;12.02;;
34481;SDS011;20720;48.886;9.388;2023-05-16T05:44:40;17.38;;;13.30;;
34481;SDS011;20720;48.886;9.388;2023-05-16T05:47:06;17.50;;;13.40;;
34481;SDS011;20720;48.886;9.388;2023-05-16T05:49:31;18.35;;;12.55;;
34481;SDS011;20720;48.886;9.388;2023-05-16T05:51:57;19.92;;;13.20;;
34481;SDS011;20720;48.886;9.388;2023-05-16T05:54:22;19.17;;;13.48;;
34481;SDS011;20720;48.886;9.388;2023-05-16T05:56:48;20.27;;;14.68;;
34481;SDS011;20720;48.886;9.388;2023-05-16T05:59:13;20.48;;;14.88;;
34481;SDS011;20720;48.886;9.388;2023-05-16T06:01:39;19.67;;;14.30;;
34481;SDS011;20720;48.886;9.388;2023-05-16T06:04:05;19.70;;;14.27;;
34481;SDS011;20720;48.886;9.388;2023-05-16T06:06:30;24.80;;;16.92;;
34481;SDS011;20720;48.886;9.388;2023-05-16T06:08:55;20.00;;;15.55;;
34481;SDS011;20720;48.886;9.388;2023-05-16T06:11:21;23.48;;;14.95;;
34481;SDS011;20720;48.886;9.388;2023-05-16T06:13:46;22.48;;;15.35;;
34481;SDS011;20720;48.886;9.388;2023-05-16T06:16:12;21.00;;;15.38;;
34481;SDS011;20720;48.886;9.388;2023-05-16T06:18:37;23.35;;;16.10;;
34481;SDS011;20720;48.886;9.388;2023-05-16T06:21:02;21.75;;;15.98;;
34481;SDS011;20720;48.886;9.388;2023-05-16T06:23:28;21.17;;;15.23;;
34481;SDS011;20720;48.886;9.388;2023-05-16T06:25:53;20.95;;;15.85;;
34481;SDS011;20720;48.886;9.388;2023-05-16T06:28:19;20.88;;;15.98;;
34481;SDS011;20720;48.886;9.388;2023-05-16T06:30:44;22.30;;;15.70;;
34481;SDS011;20720;48.886;9.388;2023-05-16T06:33:11;22.40;;;16.17;;
34481;SDS011;20720;48.886;9.388;2023-05-16T06:35:37;25.85;;;15.60;;
34481;SDS011;20720;48.886;9.388;2023-05-16T06:38:03;20.30;;;15.30;;
34481;SDS011;20720;48.886;9.388;2023-05-16T06:40:28;22.80;;;15.93;;
34481;SDS011;20720;48.886;9.388;2023-05-16T06:42:54;19.50;;;14.75;;
34481;SDS011;20720;48.886;9.388;2023-05-16T06:45:19;20.20;;;15.35;;
34481;SDS011;20720;48.886;9.388;2023-05-16T06:47:44;18.40;;;13.85;;
34481;SDS011;20720;48.886;9.388;2023-05-16T06:50:10;18.52;;;14.50;;
34481;SDS011;20720;48.886;9.388;2023-05-16T06:52:35;19.40;;;13.07;;
34481;SDS011;20720;48.886;9.388;2023-05-16T06:55:00;17.63;;;12.43;;
34481;SDS011;20720;48.886;9.388;2023-05-16T06:57:25;18.08;;;13.63;;
34481;SDS011;20720;48.886;9.388;2023-05-16T06:59:51;19.65;;;12.07;;
34481;SDS011;20720;48.886;9.388;2023-05-16T07:02:16;17.48;;;12.88;;
34481;SDS011;20720;48.886;9.388;2023-05-16T07:04:41;18.50;;;12.52;;
34481;SDS011;20720;48.886;9.388;2023-05-16T07:07:06;18.42;;;12.75;;
34481;SDS011;20720;48.886;9.388;2023-05-16T07:09:33;15.82;;;11.77;;
34481;SDS011;20720;48.886;9.388;2023-05-16T07:11:58;17.05;;;12.23;;
34481;SDS011;20720;48.886;9.388;2023-05-16T07:14:23;16.50;;;11.85;;
34481;SDS011;20720;48.886;9.388;2023-05-16T07:16:49;15.45;;;11.07;;
34481;SDS011;20720;48.886;9.388;2023-05-16T07:19:14;15.15;;;10.40;;
34481;SDS011;20720;48.886;9.388;2023-05-16T07:21:39;9.95;;;7.40;;
34481;SDS011;20720;48.886;9.388;2023-05-16T07:24:05;12.85;;;9.52;;
34481;SDS011;20720;48.886;9.388;2023-05-16T07:26:31;12.38;;;9.70;;
34481;SDS011;20720;48.886;9.388;2023-05-16T07:28:57;14.52;;;10.50;;
34481;SDS011;20720;48.886;9.388;2023-05-16T07:31:22;14.85;;;10.95;;
34481;SDS011;20720;48.886;9.388;2023-05-16T07:33:48;14.27;;;10.50;;
34481;SDS011;20720;48.886;9.388;2023-05-16T07:36:13;14.32;;;10.27;;
34481;SDS011;20720;48.886;9.388;2023-05-16T07:38:39;13.10;;;9.65;;
34481;SDS011;20720;48.886;9.388;2023-05-16T07:41:04;14.40;;;10.75;;
34481;SDS011;20720;48.886;9.388;2023-05-16T07:43:30;14.10;;;11.23;;
34481;SDS011;20720;48.886;9.388;2023-05-16T07:45:56;13.20;;;10.63;;
34481;SDS011;20720;48.886;9.388;2023-05-16T07:48:21;12.20;;;9.63;;
34481;SDS011;20720;48.886;9.388;2023-05-16T07:50:46;10.65;;;8.63;;
34481;SDS011;20720;48.886;9.388;2023-05-16T07:53:12;11.30;;;8.90;;
34481;SDS011;20720;48.886;9.388;2023-05-16T07:55:37;10.82;;;8.98;;
34481;SDS011;20720;48.886;9.388;2023-05-16T07:58:02;11.63;;;8.93;;
34481;SDS011;20720;48.886;9.388;2023-05-16T08:00:28;11.50;;;8.63;;
34481;SDS011;20720;48.886;9.388;2023-05-16T08:02:53;13.45;;;8.75;;
34481;SDS011;20720;48.886;9.388;2023-05-16T08:05:19;13.85;;;10.02;;
34481;SDS011;20720;48.886;9.388;2023-05-16T08:07:44;11.73;;;9.15;;
34481;SDS011;20720;48.886;9.388;2023-05-16T08:10:09;10.75;;;8.57;;
34481;SDS011;20720;48.886;9.388;2023-05-16T08:12:35;10.32;;;8.55;;
34481;SDS011;20720;48.886;9.388;2023-05-16T08:15:00;13.30;;;9.23;;
34481;SDS011;20720;48.886;9.388;2023-05-16T08:17:26;13.15;;;9.50;;
34481;SDS011;20720;48.886;9.388;2023-05-16T08:19:51;11.45;;;9.07;;
34481;SDS011;20720;48.886;9.388;2023-05-16T08:22:16;11.63;;;9.05;;
34481;SDS011;20720;48.886;9.388;2023-05-16T08:24:41;13.23;;;9.77;;
34481;SDS011;20720;48.886;9.388;2023-05-16T08:27:07;14.27;;;9.65;;
34481;SDS011;20720;48.886;9.388;2023-05-16T08:29:32;11.43;;;9.23;;
34481;SDS011;20720;48.886;9.388;2023-05-16T08:31:58;14.88;;;9.68;;
34481;SDS011;20720;48.886;9.388;2023-05-16T08:34:23;11.40;;;9.57;;
34481;SDS011;20720;48.886;9.388;2023-05-16T08:36:49;12.80;;;10.05;;
34481;SDS011;20720;48.886;9.388;2023-05-16T08:39:14;14.18;;;10.15;;
34481;SDS011;20720;48.886;9.388;2023-05-16T08:41:39;14.15;;;10.23;;
34481;SDS011;20720;48.886;9.388;2023-05-16T08:44:05;12.18;;;9.95;;
34481;SDS011;20720;48.886;9.388;2023-05-16T08:46:31;13.50;;;9.68;;
34481;SDS011;20720;48.886;9.388;2023-05-16T08:48:58;12.73;;;9.38;;
34481;SDS011;20720;48.886;9.388;2023-05-16T08:51:25;11.35;;;9.35;;
34481;SDS011;20720;48.886;9.388;2023-05-16T08:54:10;14.48;;;10.23;;
34481;SDS011;20720;48.886;9.388;2023-05-16T08:56:37;16.20;;;10.13;;
34481;SDS011;20720;48.886;9.388;2023-05-16T08:59:03;13.02;;;9.52;;
34481;SDS011;20720;48.886;9.388;2023-05-16T09:01:29;11.73;;;8.75;;
34481;SDS011;20720;48.886;9.388;2023-05-16T09:03:56;12.95;;;9.57;;
34481;SDS011;20720;48.886;9.388;2023-05-16T09:06:22;12.15;;;9.68;;
34481;SDS011;20720;48.886;9.388;2023-05-16T09:08:48;17.02;;;12.00;;
34481;SDS011;20720;48.886;9.388;2023-05-16T09:11:14;13.48;;;10.63;;
34481;SDS011;20720;48.886;9.388;2023-05-16T09:13:39;14.50;;;11.00;;
34481;SDS011;20720;48.886;9.388;2023-05-16T09:16:08;19.10;;;11.30;;
34481;SDS011;20720;48.886;9.388;2023-05-16T09:18:35;20.42;;;11.48;;
34481;SDS011;20720;48.886;9.388;2023-05-16T09:21:01;15.75;;;12.02;;
34481;SDS011;20720;48.886;9.388;2023-05-16T09:23:27;16.45;;;11.95;;
34481;SDS011;20720;48.886;9.388;2023-05-16T09:25:53;16.70;;;12.45;;
34481;SDS011;20720;48.886;9.388;2023-05-16T09:28:18;16.17;;;11.85;;
34481;SDS011;20720;48.886;9.388;2023-05-16T09:30:45;17.45;;;12.93;;
34481;SDS011;20720;48.886;9.388;2023-05-16T09:33:11;15.65;;;12.48;;
34481;SDS011;20720;48.886;9.388;2023-05-16T09:35:36;18.77;;;11.77;;
34481;SDS011;20720;48.886;9.388;2023-05-16T09:38:02;15.63;;;12.60;;
34481;SDS011;20720;48.886;9.388;2023-05-16T09:40:27;14.82;;;11.40;;
34481;SDS011;20720;48.886;9.388;2023-05-16T09:43:00;18.45;;;13.23;;
34481;SDS011;20720;48.886;9.388;2023-05-16T09:45:26;20.73;;;14.40;;
34481;SDS011;20720;48.886;9.388;2023-05-16T09:47:51;15.30;;;12.68;;
34481;SDS011;20720;48.886;9.388;2023-05-16T09:50:17;19.90;;;14.73;;
34481;SDS011;20720;48.886;9.388;2023-05-16T09:52:43;19.48;;;14.75;;
34481;SDS011;20720;48.886;9.388;2023-05-16T09:55:09;18.95;;;13.60;;
34481;SDS011;20720;48.886;9.388;2023-05-16T09:57:38;18.88;;;13.38;;
34481;SDS011;20720;48.886;9.388;2023-05-16T10:00:08;20.60;;;14.50;;
34481;SDS011;20720;48.886;9.388;2023-05-16T10:02:36;17.92;;;14.32;;
34481;SDS011;20720;48.886;9.388;2023-05-16T10:05:03;17.33;;;14.00;;
34481;SDS011;20720;48.886;9.388;2023-05-16T10:07:29;20.15;;;15.05;;
34481;SDS011;20720;48.886;9.388;2023-05-16T10:09:56;19.45;;;14.45;;
34481;SDS011;20720;48.886;9.388;2023-05-16T10:12:25;19.67;;;14.57;;
34481;SDS011;20720;48.886;9.388;2023-05-16T10:14:54;21.85;;;15.88;;
34481;SDS011;20720;48.886;9.388;2023-05-16T10:17:20;20.08;;;14.98;;
34481;SDS011;20720;48.886;9.388;2023-05-16T10:19:46;19.65;;;14.60;;
34481;SDS011;20720;48.886;9.388;2023-05-16T10:22:12;20.25;;;14.18;;
34481;SDS011;20720;48.886;9.388;2023-05-16T10:24:50;19.20;;;14.93;;
34481;SDS011;20720;48.886;9.388;2023-05-16T10:27:17;21.67;;;14.82;;
34481;SDS011;20720;48.886;9.388;2023-05-16T10:29:43;21.30;;;14.57;;
34481;SDS011;20720;48.886;9.388;2023-05-16T10:32:09;24.30;;;16.02;;
34481;SDS011;20720;48.886;9.388;2023-05-16T10:34:36;22.55;;;16.05;;
34481;SDS011;20720;48.886;9.388;2023-05-16T10:37:02;19.95;;;14.90;;
34481;SDS011;20720;48.886;9.388;2023-05-16T10:39:29;20.05;;;14.45;;
34481;SDS011;20720;48.886;9.388;2023-05-16T10:41:55;21.95;;;14.52;;
34481;SDS011;20720;48.886;9.388;2023-05-16T10:44:21;19.85;;;13.63;;
34481;SDS011;20720;48.886;9.388;2023-05-16T10:46:46;21.90;;;14.18;;
34481;SDS011;20720;48.886;9.388;2023-05-16T10:49:21;17.85;;;13.13;;
34481;SDS011;20720;48.886;9.388;2023-05-16T10:52:10;21.55;;;14.13;;
34481;SDS011;20720;48.886;9.388;2023-05-16T10:54:41;19.70;;;13.35;;
34481;SDS011;20720;48.886;9.388;2023-05-16T10:57:14;19.33;;;13.50;;
34481;SDS011;20720;48.886;9.388;2023-05-16T10:59:42;19.67;;;12.88;;
34481;SDS011;20720;48.886;9.388;2023-05-16T11:02:23;19.38;;;12.65;;
34481;SDS011;20720;48.886;9.388;2023-05-16T11:04:48;17.38;;;12.57;;
34481;SDS011;20720;48.886;9.388;2023-05-16T11:07:19;17.95;;;14.27;;
34481;SDS011;20720;48.886;9.388;2023-05-16T11:09:52;14.88;;;11.60;;
34481;SDS011;20720;48.886;9.388;2023-05-16T11:12:34;16.10;;;12.55;;
34481;SDS011;20720;48.886;9.388;2023-05-16T11:15:17;19.05;;;12.90;;
34481;SDS011;20720;48.886;9.388;2023-05-16T11:17:48;19.77;;;12.43;;
34481;SDS011;20720;48.886;9.388;2023-05-16T11:20:29;15.35;;;11.57;;
34481;SDS011;20720;48.886;9.388;2023-05-16T11:25:44;15.02;;;11.57;;
34481;SDS011;20720;48.886;9.388;2023-05-16T11:28:11;14.73;;;11.57;;
34481;SDS011;20720;48.886;9.388;2023-05-16T11:30:40;17.23;;;11.45;;
34481;SDS011;20720;48.886;9.388;2023-05-16T11:33:07;16.63;;;11.38;;
34481;SDS011;20720;48.886;9.388;2023-05-16T11:35:32;12.40;;;9.57;;
34481;SDS011;20720;48.886;9.388;2023-05-16T11:37:58;14.05;;;10.90;;
34481;SDS011;20720;48.886;9.388;2023-05-16T11:40:25;14.77;;;10.70;;
34481;SDS011;20720;48.886;9.388;2023-05-16T11:42:51;16.25;;;10.32;;
34481;SDS011;20720;48.886;9.388;2023-05-16T11:45:17;12.60;;;9.55;;
34481;SDS011;20720;48.886;9.388;2023-05-16T11:47:44;12.90;;;8.82;;
34481;SDS011;20720;48.886;9.388;2023-05-16T11:50:15;10.93;;;8.55;;
34481;SDS011;20720;48.886;9.388;2023-05-16T11:52:43;12.82;;;8.18;;
34481;SDS011;20720;48.886;9.388;2023-05-16T11:55:12;8.77;;;6.93;;
34481;SDS011;20720;48.886;9.388;2023-05-16T11:57:39;10.00;;;7.47;;
34481;SDS011;20720;48.886;9.388;2023-05-16T12:02:38;7.57;;;5.90;;
34481;SDS011;20720;48.886;9.388;2023-05-16T12:05:07;9.40;;;6.07;;
34481;SDS011;20720;48.886;9.388;2023-05-16T12:07:34;9.30;;;6.35;;
34481;SDS011;20720;48.886;9.388;2023-05-16T12:10:08;7.53;;;5.78;;
34481;SDS011;20720;48.886;9.388;2023-05-16T12:12:35;8.82;;;5.90;;
34481;SDS011;20720;48.886;9.388;2023-05-16T12:15:03;8.57;;;5.72;;
34481;SDS011;20720;48.886;9.388;2023-05-16T12:17:30;6.47;;;4.68;;
34481;SDS011;20720;48.886;9.388;2023-05-16T12:19:56;6.40;;;4.88;;
34481;SDS011;20720;48.886;9.388;2023-05-16T12:22:22;7.25;;;5.20;;
34481;SDS011;20720;48.886;9.388;2023-05-16T12:24:49;6.53;;;4.80;;
34481;SDS011;20720;48.886;9.388;2023-05-16T12:27:20;6.30;;;4.60;;
34481;SDS011;20720;48.886;9.388;2023-05-16T12:29:46;7.10;;;4.47;;
34481;SDS011;20720;48.886;9.388;2023-05-16T12:32:12;5.70;;;4.00;;
34481;SDS011;20720;48.886;9.388;2023-05-16T12:34:38;6.10;;;4.60;;
34481;SDS011;20720;48.886;9.388;2023-05-16T12:37:03;7.40;;;4.45;;
34481;SDS011;20720;48.886;9.388;2023-05-16T12:39:35;5.68;;;4.15;;
34481;SDS011;20720;48.886;9.388;2023-05-16T12:42:04;5.00;;;3.50;;
34481;SDS011;20720;48.886;9.388;2023-05-16T12:44:30;6.20;;;4.15;;
34481;SDS011;20720;48.886;9.388;2023-05-16T12:46:56;5.38;;;3.83;;
34481;SDS011;20720;48.886;9.388;2023-05-16T12:49:22;6.95;;;4.55;;
34481;SDS011;20720;48.886;9.388;2023-05-16T12:51:48;4.47;;;3.75;;
34481;SDS011;20720;48.886;9.388;2023-05-16T12:54:15;4.65;;;3.17;;
34481;SDS011;20720;48.886;9.388;2023-05-16T12:56:40;4.45;;;3.38;;
34481;SDS011;20720;48.886;9.388;2023-05-16T12:59:06;4.28;;;3.08;;
34481;SDS011;20720;48.886;9.388;2023-05-16T13:01:32;5.47;;;3.60;;
34481;SDS011;20720;48.886;9.388;2023-05-16T13:03:58;4.05;;;3.10;;
34481;SDS011;20720;48.886;9.388;2023-05-16T13:06:24;3.92;;;2.90;;
34481;SDS011;20720;48.886;9.388;2023-05-16T13:08:50;4.93;;;3.17;;
34481;SDS011;20720;48.886;9.388;2023-05-16T13:11:16;5.50;;;3.20;;
34481;SDS011;20720;48.886;9.388;2023-05-16T13:13:41;5.20;;;2.80;;
34481;SDS011;20720;48.886;9.388;2023-05-16T13:16:06;3.88;;;2.75;;
34481;SDS011;20720;48.886;9.388;2023-05-16T13:18:31;3.85;;;2.25;;
34481;SDS011;20720;48.886;9.388;2023-05-16T13:20:58;3.42;;;2.70;;
34481;SDS011;20720;48.886;9.388;2023-05-16T13:23:23;4.38;;;2.45;;
34481;SDS011;20720;48.886;9.388;2023-05-16T13:25:48;5.32;;;2.13;;
34481;SDS011;20720;48.886;9.388;2023-05-16T13:28:13;4.50;;;2.08;;
34481;SDS011;20720;48.886;9.388;2023-05-16T13:30:39;3.60;;;2.17;;
34481;SDS011;20720;48.886;9.388;2023-05-16T13:33:05;2.60;;;1.95;;
34481;SDS011;20720;48.886;9.388;2023-05-16T13:35:30;4.13;;;2.10;;
34481;SDS011;20720;48.886;9.388;2023-05-16T13:37:55;3.65;;;2.38;;
34481;SDS011;20720;48.886;9.388;2023-05-16T13:40:21;3.42;;;1.80;;
34481;SDS011;20720;48.886;9.388;2023-05-16T13:42:46;3.67;;;2.10;;
34481;SDS011;20720;48.886;9.388;2023-05-16T13:45:11;3.42;;;2.10;;
34481;SDS011;20720;48.886;9.388;2023-05-16T13:47:37;4.57;;;2.17;;
34481;SDS011;20720;48.886;9.388;2023-05-16T13:50:02;2.65;;;1.80;;
34481;SDS011;20720;48.886;9.388;2023-05-16T13:52:31;2.42;;;1.55;;
34481;SDS011;20720;48.886;9.388;2023-05-16T13:54:57;3.47;;;1.50;;
34481;SDS011;20720;48.886;9.388;2023-05-16T13:57:22;5.72;;;1.73;;
34481;SDS011;20720;48.886;9.388;2023-05-16T13:59:47;3.38;;;1.65;;
34481;SDS011;20720;48.886;9.388;2023-05-16T14:02:13;3.67;;;1.70;;
34481;SDS011;20720;48.886;9.388;2023-05-16T14:04:39;2.53;;;1.60;;
34481;SDS011;20720;48.886;9.388;2023-05-16T14:07:04;2.22;;;1.52;;
34481;SDS011;20720;48.886;9.388;2023-05-16T14:09:30;2.40;;;1.40;;
34481;SDS011;20720;48.886;9.388;2023-05-16T14:11:58;2.75;;;1.67;;
34481;SDS011;20720;48.886;9.388;2023-05-16T14:14:24;2.75;;;2.10;;
34481;SDS011;20720;48.886;9.388;2023-05-16T14:16:49;2.55;;;1.42;;
34481;SDS011;20720;48.886;9.388;2023-05-16T14:19:14;6.07;;;1.75;;
34481;SDS011;20720;48.886;9.388;2023-05-16T14:21:40;3.22;;;1.52;;
34481;SDS011;20720;48.886;9.388;2023-05-16T14:24:05;2.53;;;1.63;;
34481;SDS011;20720;48.886;9.388;2023-05-16T14:26:31;2.28;;;1.40;;
34481;SDS011;20720;48.886;9.388;2023-05-16T14:28:57;2.83;;;1.60;;
34481;SDS011;20720;48.886;9.388;2023-05-16T14:31:22;2.88;;;1.65;;
34481;SDS011;20720;48.886;9.388;2023-05-16T14:33:47;3.03;;;1.55;;
34481;SDS011;20720;48.886;9.388;2023-05-16T14:36:12;2.13;;;1.38;;
34481;SDS011;20720;48.886;9.388;2023-05-16T14:38:38;2.53;;;1.35;;
34481;SDS011;20720;48.886;9.388;2023-05-16T14:54:43;1.90;;;1.20;;
34481;SDS011;20720;48.886;9.388;2023-05-16T14:57:11;2.53;;;1.42;;
34481;SDS011;20720;48.886;9.388;2023-05-16T14:59:39;2.42;;;1.45;;